Time;durP1;ratioP1;P1;durP2;ratioP2;P2;SDS_P1;SDS_P2;PMS_P1;PMS_P2;Temp;Humidity;BMP_temperature;BMP_pressure;BME280_temperature;BME280_humidity;BME280_pressure;Samples;Min_cycle;Max_cycle;Signal;HPM_P1;HPM_P2
2021/09/22 00:00:09;;;;;;;3.42;1.90;;;25.10;99.90;;;;;;1791436;79;21815;-88
2021/09/22 00:02:42;;;;;;;2.92;1.50;;;25.20;99.90;;;;;;1830188;77;21140;-86
2021/09/22 00:05:19;;;;;;;3.15;1.62;;;25.20;99.90;;;;;;1811308;79;21249;-87
2021/09/22 00:11:19;;;;;;;3.67;2.42;;;25.20;99.90;;;;;;1823882;76;21103;-86
2021/09/22 00:13:49;;;;;;;3.77;2.58;;;25.30;99.90;;;;;;1842155;77;21216;-87
2021/09/22 00:16:20;;;;;;;3.40;2.00;;;25.20;99.90;;;;;;1837250;78;21873;-86
2021/09/22 00:21:34;;;;;;;3.75;1.82;;;25.30;99.90;;;;;;1929878;73;21068;-87
2021/09/22 00:24:06;;;;;;;3.77;1.80;;;25.20;99.90;;;;;;1930231;73;21184;-87
2021/09/22 00:26:37;;;;;;;4.97;2.27;;;25.30;99.90;;;;;;1932341;73;21240;-87
2021/09/22 00:29:08;;;;;;;4.92;2.70;;;25.30;99.90;;;;;;1953332;73;21119;-87
2021/09/22 00:31:39;;;;;;;2.58;1.50;;;25.30;99.90;;;;;;1944407;73;21798;-88
2021/09/22 00:34:11;;;;;;;3.55;1.65;;;25.30;99.90;;;;;;1928037;74;21143;-87
2021/09/22 00:36:41;;;;;;;4.35;2.02;;;25.30;99.90;;;;;;1923640;74;21177;-86
2021/09/22 00:39:12;;;;;;;3.35;1.47;;;25.30;99.90;;;;;;1889087;75;21229;-87
2021/09/22 00:41:43;;;;;;;4.42;1.95;;;25.30;99.90;;;;;;1916024;74;21512;-87
2021/09/22 00:44:14;;;;;;;5.10;1.98;;;25.30;99.90;;;;;;1884924;74;21144;-87
2021/09/22 00:46:45;;;;;;;5.08;1.70;;;25.30;99.90;;;;;;1900848;75;21373;-88
2021/09/22 00:49:16;;;;;;;4.58;2.40;;;25.40;99.90;;;;;;1914472;75;21187;-86
2021/09/22 00:51:48;;;;;;;3.77;1.95;;;25.30;99.90;;;;;;1913842;74;21177;-88
2021/09/22 00:58:02;;;;;;;4.22;2.30;;;25.40;99.90;;;;;;1906077;74;21095;-78
2021/09/22 01:00:37;;;;;;;6.95;2.58;;;25.40;99.90;;;;;;1873305;76;21190;-76
2021/09/22 01:06:34;;;;;;;9.13;4.92;;;25.40;99.90;;;;;;1881101;76;21250;-75
2021/09/22 01:09:05;;;;;;;6.28;4.22;;;25.40;99.90;;;;;;1932049;73;21178;-75
2021/09/22 01:11:36;;;;;;;5.08;2.70;;;25.40;99.90;;;;;;1902875;73;22196;-76
2021/09/22 01:14:07;;;;;;;6.92;4.55;;;25.40;99.90;;;;;;1917683;73;21183;-75
2021/09/22 01:16:40;;;;;;;5.08;2.05;;;25.50;99.90;;;;;;1910174;74;21629;-75
2021/09/22 01:19:16;;;;;;;6.15;3.33;;;25.40;99.90;;;;;;1885371;74;21147;-75
2021/09/22 01:21:49;;;;;;;6.78;3.17;;;25.50;99.90;;;;;;1865513;75;21110;-76
2021/09/22 01:24:21;;;;;;;5.33;2.58;;;25.50;99.90;;;;;;1836428;77;21231;-76
2021/09/22 01:26:53;;;;;;;3.65;2.25;;;25.50;99.90;;;;;;1872867;74;21583;-76
2021/09/22 01:29:24;;;;;;;5.03;2.72;;;25.50;99.90;;;;;;1915510;74;21116;-76
2021/09/22 01:31:55;;;;;;;6.03;3.05;;;25.50;99.90;;;;;;1914604;74;21116;-76
2021/09/22 01:34:25;;;;;;;8.45;6.15;;;25.60;99.90;;;;;;1901946;75;21607;-76
2021/09/22 01:37:02;;;;;;;12.00;4.50;;;25.60;99.90;;;;;;1909986;73;21155;-76
2021/09/22 01:39:35;;;;;;;4.67;3.20;;;25.60;99.90;;;;;;1904112;74;21132;-76
2021/09/22 01:42:06;;;;;;;7.72;3.50;;;25.60;99.90;;;;;;1913500;74;21633;-76
2021/09/22 01:44:38;;;;;;;2.83;1.95;;;25.60;99.90;;;;;;1902566;74;21136;-76
2021/09/22 01:47:09;;;;;;;3.98;2.25;;;25.60;99.90;;;;;;1911524;74;21056;-76
2021/09/22 01:49:39;;;;;;;2.87;2.00;;;25.60;99.90;;;;;;1917363;74;21080;-76
2021/09/22 01:52:10;;;;;;;3.92;1.90;;;25.70;99.90;;;;;;1921489;74;21085;-76
2021/09/22 01:54:41;;;;;;;4.62;1.90;;;25.70;99.90;;;;;;1903918;74;21080;-76
2021/09/22 01:57:49;;;;;;;2.47;1.70;;;25.70;99.90;;;;;;1912434;74;21178;-76
2021/09/22 02:00:21;;;;;;;3.80;1.80;;;25.80;99.90;;;;;;1868803;76;21178;-76
2021/09/22 02:02:52;;;;;;;3.15;1.70;;;25.90;99.90;;;;;;1870335;76;21163;-76
2021/09/22 02:05:23;;;;;;;2.90;1.72;;;26.00;99.90;;;;;;1864736;76;21791;-76
2021/09/22 02:07:55;;;;;;;6.05;2.47;;;26.00;99.90;;;;;;1861914;76;21293;-75
2021/09/22 02:10:26;;;;;;;2.42;1.80;;;26.10;99.90;;;;;;1870947;75;21753;-76
2021/09/22 02:12:56;;;;;;;2.75;1.55;;;26.20;99.90;;;;;;1897509;74;21123;-76
2021/09/22 02:15:41;;;;;;;;;;;;;;;;;;;;;
2021/09/22 02:18:35;;;;;;;2.70;1.50;;;26.30;99.90;;;;;;1809466;78;21240;-76
2021/09/22 02:21:09;;;;;;;2.20;1.30;;;26.40;99.90;;;;;;1784150;79;21138;-75
2021/09/22 02:23:40;;;;;;;3.52;1.40;;;26.40;99.90;;;;;;1794526;79;21264;-75
2021/09/22 02:26:11;;;;;;;2.42;1.52;;;26.40;99.90;;;;;;1785488;79;21110;-75
2021/09/22 02:28:42;;;;;;;3.05;1.85;;;26.40;99.90;;;;;;1774768;79;21809;-75
2021/09/22 02:31:18;;;;;;;2.77;1.65;;;26.50;99.90;;;;;;1780921;79;21219;-75
2021/09/22 02:33:47;;;;;;;2.80;1.80;;;26.60;99.90;;;;;;1809865;78;21244;-75
2021/09/22 02:36:18;;;;;;;2.67;1.30;;;26.60;99.90;;;;;;1769718;78;21232;-75
2021/09/22 02:38:50;;;;;;;1.80;1.32;;;26.60;99.90;;;;;;1804407;78;21162;-74
2021/09/22 02:41:34;;;;;;;4.72;1.77;;;26.50;99.90;;;;;;1781130;77;21200;-75
2021/09/22 02:44:05;;;;;;;2.17;1.70;;;26.70;99.90;;;;;;1803892;78;21221;-75
2021/09/22 02:46:36;;;;;;;2.17;1.42;;;26.70;99.90;;;;;;1817450;77;21156;-75
2021/09/22 02:49:08;;;;;;;5.83;1.98;;;26.90;99.90;;;;;;1836103;77;21139;-75
2021/09/22 02:51:39;;;;;;;2.00;1.35;;;26.90;99.90;;;;;;1833869;77;21182;-75
2021/09/22 02:54:10;;;;;;;2.45;1.30;;;27.00;99.90;;;;;;1815800;77;21136;-75
2021/09/22 02:56:41;;;;;;;2.12;1.05;;;27.10;99.90;;;;;;1806055;78;21610;-76
2021/09/22 02:59:11;;;;;;;4.12;1.52;;;27.10;99.90;;;;;;1834345;77;21156;-74
2021/09/22 03:01:45;;;;;;;2.42;1.50;;;27.20;99.90;;;;;;1800842;78;21185;-74
2021/09/22 03:04:17;;;;;;;2.80;1.45;;;27.30;99.90;;;;;;1813335;76;21732;-75
2021/09/22 03:07:00;;;;;;;3.05;1.62;;;27.40;99.90;;;;;;1823430;77;21834;-75
2021/09/22 03:09:32;;;;;;;2.92;1.45;;;27.40;99.90;;;;;;1807670;78;21182;-76
2021/09/22 03:12:03;;;;;;;5.25;1.52;;;27.40;99.90;;;;;;1798002;77;21169;-75
2021/09/22 03:14:34;;;;;;;3.20;1.80;;;27.50;99.90;;;;;;1804293;77;21918;-76
2021/09/22 03:17:05;;;;;;;1.72;1.20;;;27.60;99.90;;;;;;1808868;77;21268;-74
2021/09/22 03:19:37;;;;;;;3.30;1.62;;;27.70;99.90;;;;;;1794555;77;21219;-71
2021/09/22 03:22:09;;;;;;;12.07;2.35;;;27.80;99.90;;;;;;1829875;77;21620;-73
2021/09/22 03:24:40;;;;;;;2.08;1.20;;;27.70;99.90;;;;;;1816559;77;21174;-73
2021/09/22 03:27:11;;;;;;;2.65;1.62;;;27.80;99.90;;;;;;1816764;76;21146;-73
2021/09/22 03:29:41;;;;;;;4.03;1.87;;;27.80;99.90;;;;;;1824222;78;21182;-74
2021/09/22 03:32:12;;;;;;;5.47;1.90;;;27.80;99.90;;;;;;1797480;79;21598;-74
2021/09/22 03:34:43;;;;;;;3.75;1.60;;;27.80;99.90;;;;;;1802984;79;21110;-73
2021/09/22 03:37:13;;;;;;;1.90;1.42;;;27.80;99.90;;;;;;1814494;78;21107;-75
2021/09/22 03:39:45;;;;;;;2.02;1.50;;;27.90;99.90;;;;;;1814043;78;21150;-75
2021/09/22 03:45:15;;;;;;;4.33;1.87;;;28.00;99.90;;;;;;1739046;81;21204;-76
2021/09/22 03:54:06;;;;;;;2.85;1.45;;;28.20;99.90;;;;;;1732812;82;21630;-75
2021/09/22 03:56:37;;;;;;;3.42;1.62;;;28.30;99.90;;;;;;1730563;81;21198;-75
2021/09/22 03:59:08;;;;;;;2.83;1.55;;;28.30;99.90;;;;;;1765647;79;21266;-75
2021/09/22 04:01:38;;;;;;;2.77;1.50;;;28.30;99.90;;;;;;1747303;80;21314;-76
2021/09/22 04:04:10;;;;;;;3.30;1.65;;;28.40;99.90;;;;;;1732066;80;21221;-76
2021/09/22 04:06:41;;;;;;;1.95;1.50;;;28.50;99.90;;;;;;1695062;83;21186;-76
2021/09/22 04:09:14;;;;;;;2.65;1.37;;;28.50;99.90;;;;;;1751604;79;21286;-77
2021/09/22 04:11:44;;;;;;;2.30;1.40;;;28.50;99.90;;;;;;1746531;80;21282;-75
2021/09/22 04:14:16;;;;;;;2.80;1.40;;;28.50;99.90;;;;;;1724436;81;21241;-75
2021/09/22 04:16:46;;;;;;;3.35;1.82;;;28.50;99.90;;;;;;1763936;81;21175;-76
2021/09/22 04:19:18;;;;;;;4.55;1.98;;;28.50;99.90;;;;;;1733198;81;21279;-77
2021/09/22 04:21:48;;;;;;;2.95;1.90;;;28.40;99.90;;;;;;1741058;80;21310;-75
2021/09/22 04:24:19;;;;;;;6.08;1.50;;;28.40;99.90;;;;;;1833277;76;21125;-75
2021/09/22 04:26:50;;;;;;;2.87;1.60;;;28.40;99.90;;;;;;1824798;76;21194;-74
2021/09/22 04:29:21;;;;;;;4.42;1.60;;;28.40;99.90;;;;;;1828258;77;21272;-76
2021/09/22 04:31:52;;;;;;;4.22;2.50;;;28.40;99.90;;;;;;1797082;77;21151;-76
2021/09/22 04:34:23;;;;;;;8.10;2.35;;;28.30;99.90;;;;;;1790063;79;21621;-76
2021/09/22 04:36:55;;;;;;;3.17;1.80;;;28.40;99.90;;;;;;1803386;77;21176;-77
2021/09/22 04:39:26;;;;;;;4.17;2.40;;;28.60;99.90;;;;;;1809950;77;21091;-76
2021/09/22 04:41:57;;;;;;;3.87;2.25;;;28.60;99.90;;;;;;1804661;77;21716;-76
2021/09/22 04:50:56;;;;;;;4.30;2.00;;;28.80;99.90;;;;;;1809829;77;21268;-74
2021/09/22 04:53:27;;;;;;;3.20;1.80;;;29.00;99.90;;;;;;1796536;77;21790;-74
2021/09/22 04:55:58;;;;;;;2.80;1.60;;;29.00;99.90;;;;;;1809694;77;21499;-74
2021/09/22 04:58:29;;;;;;;3.62;1.47;;;29.20;99.20;;;;;;1848342;77;21643;-75
2021/09/22 05:01:02;;;;;;;4.45;1.60;;;29.40;98.30;;;;;;1850842;77;21245;-74
2021/09/22 05:03:33;;;;;;;2.65;1.30;;;29.40;98.40;;;;;;1846955;76;21138;-73
2021/09/22 05:09:15;;;;;;;7.50;1.60;;;29.80;99.50;;;;;;1806028;76;21184;-74
2021/09/22 05:11:46;;;;;;;2.37;1.52;;;29.90;98.60;;;;;;1786077;78;21579;-74
2021/09/22 05:14:17;;;;;;;2.12;1.35;;;30.00;99.20;;;;;;1791085;78;21178;-74
2021/09/22 05:16:48;;;;;;;4.78;1.55;;;29.90;99.70;;;;;;1753196;80;21167;-75
2021/09/22 05:19:19;;;;;;;2.37;1.45;;;29.90;99.50;;;;;;1789883;78;21256;-73
2021/09/22 05:21:51;;;;;;;2.85;1.60;;;30.10;99.90;;;;;;1797463;77;21786;-74
2021/09/22 05:24:23;;;;;;;2.08;1.30;;;30.30;99.80;;;;;;1813284;77;21244;-75
2021/09/22 05:26:53;;;;;;;1.95;1.20;;;30.50;97.40;;;;;;1812377;76;21896;-74
2021/09/22 05:29:24;;;;;;;2.60;1.50;;;30.30;96.60;;;;;;1798160;78;21110;-74
2021/09/22 05:31:55;;;;;;;2.87;1.57;;;30.40;95.90;;;;;;1746371;79;21276;-74
2021/09/22 05:34:26;;;;;;;3.42;1.40;;;30.90;99.90;;;;;;1775039;79;21246;-74
2021/09/22 05:36:57;;;;;;;1.62;1.20;;;30.90;99.90;;;;;;1775648;80;21191;-74
2021/09/22 05:40:04;;;;;;;1.60;1.07;;;30.60;99.90;;;;;;1780992;79;21258;-74
2021/09/22 05:42:35;;;;;;;2.92;1.37;;;30.60;99.90;;;;;;1782959;79;21811;-74
2021/09/22 05:45:06;;;;;;;2.75;1.77;;;30.60;99.90;;;;;;1780858;79;21222;-75
2021/09/22 05:47:37;;;;;;;2.67;1.35;;;30.40;99.90;;;;;;1840853;77;21153;-75
2021/09/22 05:50:08;;;;;;;3.58;1.45;;;30.60;99.90;;;;;;1827396;77;21174;-75
2021/09/22 05:52:39;;;;;;;2.33;1.45;;;30.50;99.90;;;;;;1827885;76;21182;-76
2021/09/22 05:55:10;;;;;;;2.17;1.22;;;30.50;99.90;;;;;;1822795;76;21119;-76
2021/09/22 05:57:44;;;;;;;1.82;1.30;;;30.60;99.90;;;;;;1810099;77;21247;-76
2021/09/22 06:00:15;;;;;;;3.90;1.55;;;30.70;99.90;;;;;;1774166;78;21165;-76
2021/09/22 06:02:46;;;;;;;2.37;1.30;;;30.70;95.00;;;;;;1817927;77;21159;-76
2021/09/22 06:05:17;;;;;;;2.72;1.72;;;30.70;95.10;;;;;;1835609;76;21239;-75
2021/09/22 06:07:48;;;;;;;2.77;1.30;;;30.80;95.70;;;;;;1822003;76;21700;-75
2021/09/22 06:16:40;;;;;;;3.67;1.40;;;30.60;95.30;;;;;;1805190;79;21134;-75
2021/09/22 06:19:11;;;;;;;1.77;1.15;;;30.70;95.70;;;;;;1799893;77;21178;-75
2021/09/22 06:21:41;;;;;;;1.65;0.80;;;30.70;94.70;;;;;;1806490;77;21123;-75
2021/09/22 06:24:18;;;;;;;2.12;1.05;;;30.80;94.20;;;;;;1808160;77;21116;-75
2021/09/22 06:26:46;;;;;;;3.92;1.45;;;30.90;93.10;;;;;;1810802;78;21680;-75
2021/09/22 06:29:17;;;;;;;2.92;1.60;;;31.00;93.90;;;;;;1790782;77;21181;-74
2021/09/22 06:31:49;;;;;;;2.60;1.22;;;31.10;94.10;;;;;;1765243;80;21149;-75
2021/09/22 06:34:19;;;;;;;3.65;1.55;;;31.20;93.70;;;;;;1806590;77;21119;-76
2021/09/22 06:36:50;;;;;;;2.08;0.90;;;31.20;93.30;;;;;;1793326;79;21131;-76
2021/09/22 06:42:25;;;;;;;1.67;1.12;;;31.20;93.90;;;;;;1758252;80;21166;-76
2021/09/22 06:44:56;;;;;;;2.67;1.05;;;31.10;93.70;;;;;;1776302;78;21173;-75
2021/09/22 06:47:28;;;;;;;3.37;1.30;;;31.10;92.80;;;;;;1734312;81;21226;-76
2021/09/22 06:49:59;;;;;;;1.72;0.90;;;31.20;93.20;;;;;;1788154;79;22564;-76
2021/09/22 06:52:30;;;;;;;2.50;1.42;;;31.20;93.10;;;;;;1775527;80;21119;-76
2021/09/22 06:55:01;;;;;;;1.67;1.10;;;31.20;92.60;;;;;;1797094;78;21635;-76
2021/09/22 06:57:33;;;;;;;1.67;1.05;;;31.20;91.70;;;;;;1805143;79;21628;-77
2021/09/22 07:00:09;;;;;;;2.60;1.47;;;31.30;93.20;;;;;;1802880;78;21190;-75
2021/09/22 07:02:40;;;;;;;2.33;1.05;;;31.30;92.70;;;;;;1793576;77;21680;-75
2021/09/22 07:05:13;;;;;;;4.85;1.12;;;31.20;92.50;;;;;;1800606;77;21286;-75
2021/09/22 07:10:56;;;;;;;1.90;1.02;;;31.20;92.60;;;;;;1752871;80;21791;-76
2021/09/22 07:13:27;;;;;;;2.12;1.30;;;31.30;93.30;;;;;;1706265;81;21676;-75
2021/09/22 07:15:58;;;;;;;2.60;1.50;;;31.30;92.80;;;;;;1771080;78;21276;-75
2021/09/22 07:18:29;;;;;;;2.52;1.45;;;31.20;92.90;;;;;;1772838;78;21205;-76
2021/09/22 07:21:01;;;;;;;2.50;1.80;;;31.10;93.30;;;;;;1768520;79;21270;-77
2021/09/22 07:23:32;;;;;;;2.50;1.80;;;31.00;93.60;;;;;;1783464;78;21258;-76
2021/09/22 07:26:03;;;;;;;3.83;1.17;;;31.00;93.70;;;;;;1784510;78;21615;-75
2021/09/22 07:28:35;;;;;;;2.35;1.50;;;31.00;93.50;;;;;;1776398;79;21201;-74
2021/09/22 07:31:21;;;;;;;2.30;1.37;;;31.00;93.50;;;;;;1783865;80;21206;-75
2021/09/22 07:33:53;;;;;;;1.92;1.35;;;30.90;93.60;;;;;;1800537;79;21142;-74
2021/09/22 07:39:36;;;;;;;1.75;1.10;;;30.80;93.40;;;;;;1715665;81;21249;-75
2021/09/22 07:42:12;;;;;;;2.52;0.90;;;30.80;94.30;;;;;;1757132;80;21174;-75
2021/09/22 07:44:45;;;;;;;5.08;1.50;;;30.80;92.70;;;;;;1744112;80;21163;-76
2021/09/22 07:47:16;;;;;;;3.58;0.90;;;30.80;93.50;;;;;;1757702;80;21180;-76
2021/09/22 07:53:03;;;;;;;2.22;1.12;;;30.90;92.00;;;;;;1775055;79;21137;-73
2021/09/22 07:55:34;;;;;;;1.82;1.10;;;30.90;93.00;;;;;;1785694;79;21340;-73
2021/09/22 07:58:05;;;;;;;1.95;1.00;;;31.00;92.50;;;;;;1783828;78;21289;-75
2021/09/22 08:00:36;;;;;;;2.45;1.32;;;30.90;92.50;;;;;;1772057;79;21175;-76
2021/09/22 08:03:07;;;;;;;2.92;1.22;;;30.90;92.50;;;;;;1776291;79;21262;-75
2021/09/22 08:05:43;;;;;;;2.10;1.12;;;30.90;93.20;;;;;;1780793;78;21687;-74
2021/09/22 08:08:26;;;;;;;3.27;1.40;;;30.90;93.20;;;;;;1774793;77;21145;-76
2021/09/22 08:10:57;;;;;;;3.52;1.17;;;31.00;92.60;;;;;;1780272;78;21110;-75
2021/09/22 08:13:29;;;;;;;2.20;1.10;;;31.00;92.40;;;;;;1791392;78;21231;-76
2021/09/22 08:16:00;;;;;;;1.57;1.00;;;31.00;92.60;;;;;;1798269;77;21185;-75
2021/09/22 08:18:33;;;;;;;4.28;1.85;;;31.10;92.70;;;;;;1821879;76;21209;-75
2021/09/22 08:21:08;;;;;;;1.87;1.05;;;31.10;92.80;;;;;;1804115;78;21099;-75
2021/09/22 08:23:40;;;;;;;3.42;1.35;;;31.10;93.00;;;;;;1805343;78;21126;-76
2021/09/22 08:26:11;;;;;;;1.60;1.00;;;31.00;93.70;;;;;;1788681;78;21752;-75
2021/09/22 08:28:42;;;;;;;1.90;1.00;;;30.90;93.60;;;;;;1817227;77;21504;-75
2021/09/22 08:31:13;;;;;;;2.58;1.30;;;30.90;93.30;;;;;;1814912;77;21648;-75
2021/09/22 08:36:44;;;;;;;1.82;1.30;;;30.80;93.30;;;;;;1725246;82;21368;-74
2021/09/22 08:39:16;;;;;;;3.47;0.93;;;30.80;94.00;;;;;;1692144;84;21265;-74
2021/09/22 08:41:48;;;;;;;4.47;0.93;;;30.80;93.80;;;;;;1743011;81;21290;-75
2021/09/22 08:44:20;;;;;;;2.00;0.88;;;30.70;92.90;;;;;;1718542;82;21213;-75
2021/09/22 08:46:51;;;;;;;2.45;0.98;;;30.70;93.90;;;;;;1699543;82;21701;-75
2021/09/22 08:49:22;;;;;;;3.10;0.90;;;30.60;93.30;;;;;;1743885;80;21218;-75
2021/09/22 08:51:53;;;;;;;1.55;0.70;;;30.60;92.70;;;;;;1759408;81;21237;-75
2021/09/22 08:54:24;;;;;;;1.95;0.75;;;30.50;92.20;;;;;;1724858;82;21253;-75
2021/09/22 08:56:55;;;;;;;2.47;0.60;;;30.50;91.80;;;;;;1686204;85;21336;-75
2021/09/22 08:59:26;;;;;;;1.62;0.80;;;30.50;91.80;;;;;;1694733;83;21722;-73
2021/09/22 09:01:59;;;;;;;2.55;0.98;;;30.40;92.40;;;;;;1717560;82;21285;-74
2021/09/22 09:04:30;;;;;;;2.70;0.80;;;30.40;92.40;;;;;;1746186;80;21276;-75
2021/09/22 09:07:06;;;;;;;1.50;0.78;;;30.40;92.70;;;;;;1737987;81;21218;-75
2021/09/22 09:09:39;;;;;;;1.55;1.00;;;30.40;92.70;;;;;;1758194;81;21213;-75
2021/09/22 09:12:12;;;;;;;3.87;1.40;;;30.40;92.50;;;;;;1750952;79;21590;-75
2021/09/22 09:14:45;;;;;;;2.35;1.17;;;30.40;92.70;;;;;;1745723;80;21585;-75
2021/09/22 09:17:20;;;;;;;2.85;1.10;;;30.30;92.50;;;;;;1769204;80;21653;-75
2021/09/22 09:19:49;;;;;;;5.72;1.10;;;30.30;92.80;;;;;;1794888;79;21174;-75
2021/09/22 09:22:20;;;;;;;3.20;0.93;;;30.30;92.90;;;;;;1818612;77;21255;-75
2021/09/22 09:24:51;;;;;;;2.85;1.30;;;30.20;93.00;;;;;;1810721;77;21216;-75
2021/09/22 09:27:25;;;;;;;2.40;1.00;;;30.30;93.40;;;;;;1817940;77;21665;-74
2021/09/22 09:29:56;;;;;;;2.20;1.10;;;30.20;93.20;;;;;;1833194;76;21105;-75
2021/09/22 09:32:29;;;;;;;3.25;1.17;;;30.20;93.40;;;;;;1826200;77;21122;-75
2021/09/22 09:35:01;;;;;;;2.15;1.15;;;30.20;93.70;;;;;;1830453;77;21145;-75
2021/09/22 09:37:32;;;;;;;2.10;1.30;;;30.10;93.70;;;;;;1822918;76;21193;-75
2021/09/22 09:40:06;;;;;;;2.27;1.20;;;30.10;93.60;;;;;;1805411;76;21709;-75
2021/09/22 09:42:40;;;;;;;2.62;1.22;;;30.10;93.20;;;;;;1814246;77;21147;-75
2021/09/22 09:45:13;;;;;;;1.62;1.15;;;30.00;93.40;;;;;;1822286;76;21362;-75
2021/09/22 09:47:44;;;;;;;2.27;1.32;;;29.90;93.50;;;;;;1820931;77;21158;-75
2021/09/22 09:53:24;;;;;;;3.72;1.35;;;29.80;93.70;;;;;;1816450;76;21213;-73
2021/09/22 09:56:09;;;;;;;3.05;1.27;;;29.80;93.90;;;;;;1804937;78;21231;-73
2021/09/22 09:58:42;;;;;;;3.60;1.30;;;29.70;94.00;;;;;;1801727;78;21231;-74
2021/09/22 10:01:12;;;;;;;4.08;1.60;;;29.80;94.10;;;;;;1808206;78;21282;-78
2021/09/22 10:03:46;;;;;;;3.50;1.10;;;29.70;94.30;;;;;;1796349;79;21170;-78
2021/09/22 10:06:31;;;;;;;3.45;1.32;;;29.70;94.30;;;;;;1815965;76;21115;-78
2021/09/22 10:09:02;;;;;;;2.67;1.30;;;29.60;94.40;;;;;;1847884;77;21669;-77
2021/09/22 10:14:33;;;;;;;5.60;1.40;;;29.60;94.60;;;;;;1816672;77;21754;-78
2021/09/22 10:17:04;;;;;;;2.85;1.47;;;29.50;94.80;;;;;;1811786;77;21168;-78
2021/09/22 10:19:36;;;;;;;3.52;1.57;;;29.50;94.90;;;;;;1772941;80;21674;-79
2021/09/22 10:25:35;;;;;;;3.50;1.90;;;29.40;95.20;;;;;;1781300;77;21248;-78
2021/09/22 10:28:07;;;;;;;3.75;2.40;;;29.40;95.30;;;;;;1747483;81;21748;-78
2021/09/22 10:30:41;;;;;;;6.00;2.80;;;29.40;95.50;;;;;;1807193;79;21116;-78
2021/09/22 10:33:14;;;;;;;3.98;2.52;;;29.40;95.60;;;;;;1784311;78;21662;-78
2021/09/22 10:35:46;;;;;;;4.72;2.22;;;29.30;95.60;;;;;;1757373;80;21720;-78
2021/09/22 10:38:19;;;;;;;5.40;2.40;;;29.30;95.70;;;;;;1790851;79;21166;-78
2021/09/22 10:47:31;;;;;;;6.83;3.58;;;29.20;96.20;;;;;;1810354;77;21157;-78
2021/09/22 10:50:02;;;;;;;5.00;3.60;;;29.20;96.30;;;;;;1800582;77;21126;-77
2021/09/22 10:52:36;;;;;;;5.50;2.58;;;29.20;96.80;;;;;;1795837;79;21160;-78
2021/09/22 10:55:11;;;;;;;5.12;2.50;;;29.20;96.50;;;;;;1792067;78;21182;-78
2021/09/22 10:57:45;;;;;;;3.95;2.40;;;29.20;96.60;;;;;;1785472;79;21272;-78
2021/09/22 11:00:20;;;;;;;6.95;2.50;;;29.10;96.60;;;;;;1759965;80;21726;-78
2021/09/22 11:02:58;;;;;;;6.42;2.30;;;29.10;96.70;;;;;;1781813;79;21194;-78
2021/09/22 11:05:37;;;;;;;4.85;2.77;;;29.10;96.70;;;;;;1781808;77;21694;-78
2021/09/22 11:08:12;;;;;;;4.37;2.37;;;29.10;96.60;;;;;;1822106;77;21104;-77
2021/09/22 11:10:43;;;;;;;6.75;3.33;;;29.10;96.60;;;;;;1803674;77;21751;-77
2021/09/22 11:13:17;;;;;;;7.72;3.60;;;29.10;96.70;;;;;;1770581;77;21728;-78
2021/09/22 11:15:51;;;;;;;5.53;3.45;;;29.00;96.60;;;;;;1803575;77;21224;-78
2021/09/22 11:18:24;;;;;;;5.37;3.30;;;29.00;96.70;;;;;;1807238;77;21071;-79
2021/09/22 11:20:57;;;;;;;8.13;5.33;;;29.00;96.70;;;;;;1818336;76;21174;-77
2021/09/22 11:23:31;;;;;;;13.28;7.67;;;29.00;96.80;;;;;;1814363;76;21701;-78
2021/09/22 11:26:04;;;;;;;12.95;6.65;;;29.00;96.90;;;;;;1816273;78;21233;-77
2021/09/22 11:31:56;;;;;;;12.85;5.80;;;28.90;97.00;;;;;;1815565;77;21092;-78
2021/09/22 11:34:28;;;;;;;6.60;3.72;;;28.90;97.00;;;;;;1824352;76;21619;-78
2021/09/22 11:40:22;;;;;;;6.15;3.47;;;28.90;97.20;;;;;;1707478;82;21231;-78
2021/09/22 11:42:58;;;;;;;8.25;3.80;;;28.90;97.20;;;;;;1772123;78;21850;-78
2021/09/22 11:45:36;;;;;;;10.03;3.27;;;28.90;97.20;;;;;;1778784;78;21741;-76
2021/09/22 11:48:06;;;;;;;4.50;2.67;;;28.90;97.80;;;;;;1786621;78;21130;-78
2021/09/22 11:50:40;;;;;;;5.12;2.80;;;28.80;98.70;;;;;;1788221;78;21138;-78
2021/09/22 11:53:14;;;;;;;6.55;2.90;;;28.70;98.80;;;;;;1777655;79;21669;-78
2021/09/22 11:55:46;;;;;;;7.37;2.60;;;28.60;99.20;;;;;;1748812;79;21234;-78
2021/09/22 11:58:23;;;;;;;6.25;1.95;;;28.60;99.40;;;;;;1732043;81;21369;-78
2021/09/22 12:01:00;;;;;;;2.87;1.87;;;28.40;99.60;;;;;;1726014;81;21322;-78
2021/09/22 12:03:36;;;;;;;3.55;1.77;;;28.30;99.90;;;;;;1749110;79;21233;-79
2021/09/22 12:06:10;;;;;;;3.10;1.80;;;28.20;99.90;;;;;;1777725;79;21210;-78
2021/09/22 12:08:46;;;;;;;3.70;1.55;;;28.10;99.90;;;;;;1808806;77;21171;-77
2021/09/22 12:11:19;;;;;;;3.35;1.95;;;27.90;99.90;;;;;;1807118;76;21307;-78
2021/09/22 12:13:53;;;;;;;;;;;27.80;99.90;;;;;;1803579;76;21889;-77
2021/09/22 12:16:29;;;;;;;4.37;2.40;;;27.80;99.90;;;;;;1797415;77;20210;-77
2021/09/22 12:19:00;;;;;;;5.62;2.55;;;27.60;99.90;;;;;;1838921;76;21634;-78
2021/09/22 12:24:36;;;;;;;5.95;3.00;;;27.50;99.90;;;;;;1796029;77;21151;-78
2021/09/22 12:30:47;;;;;;;3.08;1.95;;;27.40;99.90;;;;;;1801205;78;21684;-77
2021/09/22 12:33:21;;;;;;;3.92;1.90;;;27.30;99.90;;;;;;1809507;79;21118;-77
2021/09/22 12:35:52;;;;;;;5.03;1.87;;;27.40;99.90;;;;;;1803143;77;21184;-77
2021/09/22 12:38:23;;;;;;;8.20;3.17;;;27.40;99.90;;;;;;1838904;76;21264;-75
2021/09/22 12:40:56;;;;;;;12.07;4.05;;;27.30;99.90;;;;;;1839929;76;21236;-75
2021/09/22 12:43:28;;;;;;;7.15;2.83;;;27.30;99.90;;;;;;1833400;76;21246;-76
2021/09/22 12:46:04;;;;;;;7.67;2.55;;;27.30;99.90;;;;;;1804437;78;21171;-77
2021/09/22 12:48:38;;;;;;;4.55;1.90;;;27.20;99.90;;;;;;1806593;79;21731;-78
2021/09/22 12:51:11;;;;;;;4.67;2.20;;;27.20;99.90;;;;;;1849238;77;21154;-78
2021/09/22 12:53:43;;;;;;;4.97;2.10;;;27.10;99.90;;;;;;1815827;75;21673;-78
2021/09/22 12:56:20;;;;;;;7.45;2.10;;;27.20;99.90;;;;;;1797450;78;21746;-77
2021/09/22 12:58:52;;;;;;;4.37;1.80;;;27.30;99.90;;;;;;1821855;76;21703;-78
2021/09/22 13:01:45;;;;;;;5.62;1.80;;;27.20;99.90;;;;;;1830286;77;21178;-78
2021/09/22 13:04:23;;;;;;;6.37;1.92;;;27.20;99.90;;;;;;1835422;77;21157;-78
2021/09/22 13:07:14;;;;;;;2.52;1.32;;;27.00;99.90;;;;;;1769295;78;21213;-78
2021/09/22 13:10:10;;;;;;;5.62;1.60;;;26.90;99.90;;;;;;1836039;76;21570;-78
2021/09/22 13:12:33;;;;;;;3.67;1.30;;;26.90;99.90;;;;;;1822157;76;21160;-76
2021/09/22 13:15:07;;;;;;;3.47;1.20;;;26.90;99.90;;;;;;1826938;77;21095;-77
2021/09/22 13:17:38;;;;;;;3.02;1.50;;;26.80;99.90;;;;;;1803228;78;21147;-76
2021/09/22 13:20:14;;;;;;;4.15;2.08;;;26.80;99.90;;;;;;1832755;77;21158;-75
2021/09/22 13:22:42;;;;;;;4.30;1.62;;;26.90;99.90;;;;;;1793250;78;21833;-75
2021/09/22 13:25:17;;;;;;;3.67;1.55;;;26.90;99.90;;;;;;1764277;79;21267;-77
2021/09/22 13:27:54;;;;;;;2.37;1.37;;;26.90;99.90;;;;;;1794144;76;21151;-78
2021/09/22 13:30:25;;;;;;;5.53;1.92;;;27.00;99.90;;;;;;1795060;76;21338;-78
2021/09/22 13:32:58;;;;;;;5.12;1.30;;;27.00;99.90;;;;;;1821173;77;21102;-78
2021/09/22 13:35:29;;;;;;;2.12;1.30;;;27.00;99.90;;;;;;1804978;77;21309;-78
2021/09/22 13:38:01;;;;;;;4.25;1.22;;;27.00;99.90;;;;;;1779197;78;21293;-78
2021/09/22 13:40:33;;;;;;;3.65;1.60;;;27.00;99.90;;;;;;1760052;79;21177;-78
2021/09/22 13:43:04;;;;;;;2.05;1.02;;;27.00;99.90;;;;;;1794514;78;21187;-78
2021/09/22 13:45:35;;;;;;;5.30;1.60;;;27.00;99.90;;;;;;1805969;78;21786;-78
2021/09/22 13:48:06;;;;;;;4.72;1.57;;;27.00;99.90;;;;;;1784407;79;22006;-77
2021/09/22 13:50:38;;;;;;;2.47;1.35;;;27.00;99.90;;;;;;1808130;77;21131;-78
2021/09/22 13:56:25;;;;;;;2.30;1.10;;;27.00;99.90;;;;;;1794325;78;21598;-78
2021/09/22 13:58:56;;;;;;;3.83;1.62;;;27.10;99.90;;;;;;1817686;76;21166;-78
2021/09/22 14:01:27;;;;;;;2.15;1.25;;;27.10;99.90;;;;;;1804833;77;21113;-78
2021/09/22 14:03:59;;;;;;;3.17;1.37;;;27.10;99.90;;;;;;1797665;77;21716;-78
2021/09/22 14:06:30;;;;;;;3.62;1.57;;;27.10;99.90;;;;;;1803075;78;21261;-78
2021/09/22 14:09:02;;;;;;;4.60;1.80;;;27.10;99.90;;;;;;1818914;77;21240;-78
2021/09/22 14:11:32;;;;;;;3.67;1.70;;;27.10;99.90;;;;;;1818584;78;21221;-77
2021/09/22 14:14:06;;;;;;;2.72;1.32;;;27.10;99.90;;;;;;1808768;76;21709;-77
2021/09/22 14:16:37;;;;;;;3.00;1.40;;;27.10;99.90;;;;;;1802231;78;21221;-78
2021/09/22 14:19:08;;;;;;;3.45;1.50;;;27.10;99.90;;;;;;1767322;78;21743;-78
2021/09/22 14:21:43;;;;;;;3.15;1.70;;;27.20;99.90;;;;;;1782939;77;21269;-78
2021/09/22 14:24:11;;;;;;;2.45;1.47;;;27.10;99.90;;;;;;1790791;78;21692;-77
2021/09/22 14:26:42;;;;;;;5.17;1.75;;;27.10;99.90;;;;;;1813780;79;21122;-78
2021/09/22 14:29:13;;;;;;;5.25;1.70;;;27.10;99.90;;;;;;1794143;79;21626;-75
2021/09/22 14:31:44;;;;;;;4.30;2.00;;;27.10;99.90;;;;;;1810202;76;21134;-87
2021/09/22 14:34:17;;;;;;;3.10;1.75;;;27.10;99.90;;;;;;1807913;77;21220;-86
2021/09/22 14:36:48;;;;;;;4.75;2.12;;;27.10;99.90;;;;;;1819107;76;21638;-87
2021/09/22 14:39:20;;;;;;;2.92;1.60;;;27.10;99.90;;;;;;1804216;78;21099;-86
2021/09/22 14:41:53;;;;;;;5.47;1.95;;;27.10;99.90;;;;;;1833164;75;21224;-89